createdAt,value
2022-12-31T00:01:16.525Z,11.70
2022-12-31T00:03:43.816Z,11.74
2022-12-31T00:06:20.974Z,11.71
2022-12-31T00:08:48.155Z,11.71
2022-12-31T00:11:14.903Z,11.75
2022-12-31T00:13:41.573Z,11.76
2022-12-31T00:16:14.156Z,11.76
2022-12-31T00:18:44.543Z,11.79
2022-12-31T00:21:11.474Z,11.81
2022-12-31T00:23:37.939Z,11.85
2022-12-31T00:26:16.357Z,11.87
2022-12-31T00:28:43.375Z,11.88
2022-12-31T00:31:18.320Z,11.95
2022-12-31T00:33:45.215Z,12.00
2022-12-31T00:36:21.741Z,12.03
2022-12-31T00:38:50.710Z,12.08
2022-12-31T00:41:19.279Z,12.12
2022-12-31T00:43:45.941Z,12.12
2022-12-31T00:46:13.407Z,12.12
2022-12-31T00:48:40.769Z,12.20
2022-12-31T00:51:09.049Z,12.22
2022-12-31T00:53:35.859Z,12.23
2022-12-31T00:56:08.168Z,12.24
2022-12-31T00:58:35.319Z,12.21
2022-12-31T01:01:32.837Z,12.20
2022-12-31T01:04:06.520Z,12.22
2022-12-31T01:06:33.210Z,12.22
2022-12-31T01:08:59.701Z,12.25
2022-12-31T01:11:29.292Z,12.26
2022-12-31T01:13:58.031Z,12.23
2022-12-31T01:16:29.420Z,12.21
2022-12-31T01:19:02.447Z,12.18
2022-12-31T01:21:29.510Z,12.17
2022-12-31T01:23:55.956Z,12.17
2022-12-31T01:26:22.414Z,12.16
2022-12-31T01:28:49.084Z,12.15
2022-12-31T01:31:17.645Z,12.20
2022-12-31T01:33:45.221Z,12.22
2022-12-31T01:36:16.068Z,12.20
2022-12-31T01:38:44.313Z,12.20
2022-12-31T01:41:17.007Z,12.24
2022-12-31T01:43:44.914Z,12.32
2022-12-31T01:46:14.352Z,12.40
2022-12-31T01:48:40.906Z,12.45
2022-12-31T01:51:09.526Z,12.45
2022-12-31T01:53:40.761Z,12.50
2022-12-31T01:56:07.716Z,12.56
2022-12-31T01:58:39.937Z,12.57
2022-12-31T02:01:09.700Z,12.57
2022-12-31T02:03:37.102Z,12.58
2022-12-31T02:06:10.854Z,12.66
2022-12-31T02:08:41.927Z,12.70
2022-12-31T02:11:24.250Z,12.76
2022-12-31T02:13:56.603Z,12.81
2022-12-31T02:16:40.622Z,12.82
2022-12-31T02:19:19.584Z,12.87
2022-12-31T02:22:07.778Z,12.82
2022-12-31T02:24:53.138Z,12.77
2022-12-31T02:27:29.464Z,12.76
2022-12-31T02:30:06.318Z,12.76
2022-12-31T02:32:58.009Z,12.74
2022-12-31T02:35:30.566Z,12.72
2022-12-31T02:38:03.988Z,12.73
2022-12-31T02:40:34.464Z,12.73
2022-12-31T02:43:00.898Z,12.76
2022-12-31T02:45:33.462Z,12.73
2022-12-31T02:48:26.287Z,12.74
2022-12-31T02:50:58.719Z,12.71
2022-12-31T02:53:25.054Z,12.65
2022-12-31T02:56:08.535Z,12.56
2022-12-31T02:59:02.283Z,12.56
2022-12-31T03:01:53.688Z,12.53
2022-12-31T03:04:34.356Z,12.49
2022-12-31T03:07:02.373Z,12.45
2022-12-31T03:09:28.857Z,12.44
2022-12-31T03:12:14.078Z,12.47
2022-12-31T03:14:40.609Z,12.43
2022-12-31T03:17:07.339Z,12.41
2022-12-31T03:19:52.520Z,12.38
2022-12-31T03:22:28.130Z,12.43
2022-12-31T03:25:34.931Z,12.44
2022-12-31T03:28:10.858Z,12.43
2022-12-31T03:30:39.670Z,12.41
2022-12-31T03:33:07.257Z,12.36
2022-12-31T03:35:35.857Z,12.34
2022-12-31T03:38:02.873Z,12.33
2022-12-31T03:40:30.309Z,12.39
2022-12-31T03:42:56.801Z,12.41
2022-12-31T03:45:24.087Z,12.44
2022-12-31T03:47:50.857Z,12.44
2022-12-31T03:50:18.961Z,12.47
2022-12-31T03:52:45.818Z,12.54
2022-12-31T03:55:12.875Z,12.58
2022-12-31T03:57:40.071Z,12.63
2022-12-31T04:00:09.322Z,12.68
2022-12-31T04:02:36.347Z,12.72
2022-12-31T04:05:03.227Z,12.76
2022-12-31T04:07:29.692Z,12.84
2022-12-31T04:09:56.259Z,12.95
2022-12-31T04:12:22.625Z,12.96
2022-12-31T04:14:49.032Z,13.07
2022-12-31T04:17:15.593Z,13.13
2022-12-31T04:19:42.063Z,13.22
2022-12-31T04:22:08.910Z,13.26
2022-12-31T04:24:35.285Z,13.29
2022-12-31T04:27:07.334Z,13.34
2022-12-31T04:29:35.250Z,13.32
2022-12-31T04:32:02.195Z,13.33
2022-12-31T04:34:28.607Z,13.36
2022-12-31T04:36:55.165Z,13.34
2022-12-31T04:39:21.632Z,13.29
2022-12-31T04:41:48.105Z,13.22
2022-12-31T04:44:14.612Z,13.15
2022-12-31T04:46:41.072Z,13.07
2022-12-31T04:49:07.570Z,12.98
2022-12-31T04:51:34.361Z,12.95
2022-12-31T04:54:00.803Z,12.98
2022-12-31T04:56:28.279Z,13.04
2022-12-31T04:58:55.194Z,13.09
2022-12-31T05:01:22.181Z,13.08
2022-12-31T05:03:49.471Z,13.10
2022-12-31T05:06:18.932Z,13.10
2022-12-31T05:08:46.210Z,13.09
2022-12-31T05:11:13.213Z,13.07
2022-12-31T05:13:39.953Z,13.00
2022-12-31T05:16:07.363Z,12.97
2022-12-31T05:18:34.566Z,12.99
2022-12-31T05:21:01.209Z,13.00
2022-12-31T05:23:27.995Z,12.98
2022-12-31T05:25:54.523Z,12.97
2022-12-31T05:28:21.611Z,12.99
2022-12-31T05:30:50.112Z,13.05
2022-12-31T05:33:18.017Z,13.04
2022-12-31T05:35:45.307Z,13.06
2022-12-31T05:38:11.953Z,13.09
2022-12-31T05:40:38.394Z,13.07
2022-12-31T05:43:04.882Z,13.01
2022-12-31T05:45:31.605Z,13.01
2022-12-31T05:47:58.154Z,13.04
2022-12-31T05:50:24.581Z,13.12
2022-12-31T05:52:50.992Z,13.18
2022-12-31T05:55:17.660Z,13.18
2022-12-31T05:57:44.065Z,13.22
2022-12-31T06:00:11.536Z,13.30
2022-12-31T06:02:38.114Z,13.30
2022-12-31T06:05:05.120Z,13.30
2022-12-31T06:07:31.726Z,13.35
2022-12-31T06:09:58.194Z,13.42
2022-12-31T06:12:24.703Z,13.47
2022-12-31T06:14:51.099Z,13.56
2022-12-31T06:17:17.585Z,13.59
2022-12-31T06:19:44.024Z,13.65
2022-12-31T06:22:10.421Z,13.75
2022-12-31T06:24:36.769Z,13.87
2022-12-31T06:27:03.210Z,13.92
2022-12-31T06:29:29.744Z,13.96
2022-12-31T06:31:56.173Z,14.02
2022-12-31T06:34:22.618Z,14.00
2022-12-31T06:36:49.013Z,14.02
2022-12-31T06:39:15.457Z,14.04
2022-12-31T06:41:41.878Z,14.07
2022-12-31T06:44:08.260Z,14.12
2022-12-31T06:46:34.687Z,14.08
2022-12-31T06:49:01.137Z,14.04
2022-12-31T06:51:27.547Z,14.00
2022-12-31T06:53:54.005Z,13.99
2022-12-31T06:56:34.084Z,13.90
2022-12-31T06:59:01.961Z,13.87
2022-12-31T07:01:40.654Z,13.80
2022-12-31T07:04:46.033Z,13.76
2022-12-31T07:07:26.514Z,13.74
2022-12-31T07:10:05.281Z,13.73
2022-12-31T07:13:02.969Z,13.68
2022-12-31T07:15:51.501Z,13.65
2022-12-31T07:18:36.440Z,13.63
2022-12-31T07:21:03.162Z,13.61
2022-12-31T07:23:29.753Z,13.61
2022-12-31T07:26:15.371Z,13.59
2022-12-31T07:28:58.192Z,13.57
2022-12-31T07:31:50.702Z,13.69
2022-12-31T07:34:41.162Z,13.72
2022-12-31T07:37:27.505Z,13.72
2022-12-31T07:40:32.859Z,13.70
2022-12-31T07:43:26.202Z,13.75
2022-12-31T07:46:19.445Z,13.82
2022-12-31T07:48:46.150Z,13.87
2022-12-31T07:51:12.849Z,13.88
2022-12-31T07:53:39.336Z,13.94
2022-12-31T07:56:09.606Z,13.95
2022-12-31T07:58:55.843Z,14.07
2022-12-31T08:01:34.931Z,14.16
2022-12-31T08:04:09.559Z,14.21
2022-12-31T08:06:57.762Z,14.21
2022-12-31T08:09:44.179Z,14.19
2022-12-31T08:12:10.788Z,14.21
2022-12-31T08:14:46.019Z,14.25
2022-12-31T08:17:14.977Z,14.28
2022-12-31T08:19:42.267Z,14.30
2022-12-31T08:22:39.290Z,14.33
2022-12-31T08:25:26.373Z,14.41
2022-12-31T08:28:23.834Z,14.45
2022-12-31T08:31:10.852Z,14.45
2022-12-31T08:34:08.468Z,14.41
2022-12-31T08:37:12.710Z,14.44
2022-12-31T08:39:59.956Z,14.41
2022-12-31T08:42:48.890Z,14.44
2022-12-31T08:45:32.941Z,14.48
2022-12-31T08:48:18.090Z,14.52
2022-12-31T08:50:44.775Z,14.52
2022-12-31T08:53:11.382Z,14.59
2022-12-31T08:55:38.089Z,14.62
2022-12-31T08:58:13.710Z,14.64
2022-12-31T09:00:41.225Z,14.70
2022-12-31T09:03:30.387Z,14.71
2022-12-31T09:06:10.453Z,14.71
2022-12-31T09:09:21.016Z,14.77
2022-12-31T09:12:08.977Z,14.84
2022-12-31T09:14:47.073Z,14.86
2022-12-31T09:17:45.197Z,14.90
2022-12-31T09:20:21.998Z,14.96
2022-12-31T09:22:48.940Z,15.03
2022-12-31T09:25:18.113Z,15.11
2022-12-31T09:27:56.819Z,15.14
2022-12-31T09:30:23.346Z,15.17
2022-12-31T09:33:07.651Z,15.23
2022-12-31T09:35:54.915Z,15.30
2022-12-31T09:38:23.314Z,15.39
2022-12-31T09:41:16.281Z,15.43
2022-12-31T09:44:03.173Z,15.45
2022-12-31T09:47:00.529Z,15.50
2022-12-31T09:49:55.676Z,15.58
2022-12-31T09:52:40.841Z,15.69
2022-12-31T09:55:19.341Z,15.81
2022-12-31T09:58:01.534Z,15.88
2022-12-31T10:00:43.360Z,15.96
2022-12-31T10:03:31.631Z,16.06
2022-12-31T10:06:05.558Z,16.16
2022-12-31T10:08:38.525Z,16.26
2022-12-31T10:11:27.263Z,16.37
2022-12-31T10:14:14.922Z,16.49
2022-12-31T10:17:06.065Z,16.67
2022-12-31T10:19:35.395Z,16.71
2022-12-31T10:22:26.753Z,16.68
2022-12-31T10:25:37.989Z,16.70
2022-12-31T10:28:33.587Z,16.78
2022-12-31T10:31:14.082Z,16.79
2022-12-31T10:34:05.389Z,16.85
2022-12-31T10:36:56.667Z,17.03
2022-12-31T10:39:43.681Z,17.20
2022-12-31T10:42:38.171Z,17.28
2022-12-31T10:45:32.630Z,17.37
2022-12-31T10:48:36.772Z,17.45
2022-12-31T10:51:22.129Z,17.50
2022-12-31T10:54:07.195Z,17.61
2022-12-31T10:57:07.079Z,17.72
2022-12-31T10:59:36.422Z,17.79
2022-12-31T11:02:35.441Z,17.81
2022-12-31T11:05:21.137Z,17.88
2022-12-31T11:07:56.307Z,17.95
2022-12-31T11:10:41.528Z,18.00
2022-12-31T11:13:23.923Z,18.03
2022-12-31T11:16:30.141Z,18.03
2022-12-31T11:19:11.753Z,18.11
2022-12-31T11:21:59.829Z,18.11
2022-12-31T11:25:14.167Z,18.09
2022-12-31T11:27:54.209Z,18.14
2022-12-31T11:30:46.137Z,18.25
2022-12-31T11:33:50.716Z,18.35
2022-12-31T11:36:54.642Z,18.38
2022-12-31T11:39:42.489Z,18.40
2022-12-31T11:42:24.070Z,18.40
2022-12-31T11:45:12.670Z,18.41
2022-12-31T11:48:29.520Z,18.46
2022-12-31T11:51:31.688Z,18.55
2022-12-31T11:54:24.522Z,18.61
2022-12-31T11:57:05.105Z,18.62
2022-12-31T11:59:31.559Z,18.58
2022-12-31T12:02:19.844Z,18.54
2022-12-31T12:04:49.818Z,18.53
2022-12-31T12:07:17.598Z,18.58
2022-12-31T12:09:45.418Z,18.61
2022-12-31T12:12:12.790Z,18.69
2022-12-31T12:14:41.777Z,18.74
2022-12-31T12:17:10.529Z,18.72
2022-12-31T12:19:45.898Z,18.76
2022-12-31T12:22:21.020Z,18.81
2022-12-31T12:25:06.264Z,18.88
2022-12-31T12:27:35.076Z,18.85
2022-12-31T12:30:12.147Z,18.79
2022-12-31T12:32:38.549Z,18.75
2022-12-31T12:35:16.028Z,18.69
2022-12-31T12:37:42.494Z,18.56
2022-12-31T12:40:21.484Z,18.41
2022-12-31T12:42:49.042Z,18.29
2022-12-31T12:45:51.416Z,18.26
2022-12-31T12:48:37.050Z,18.22
2022-12-31T12:51:19.060Z,18.16
2022-12-31T12:54:00.731Z,18.12
2022-12-31T12:56:41.712Z,18.17
2022-12-31T12:59:41.504Z,18.18
2022-12-31T13:02:25.075Z,18.19
2022-12-31T13:04:59.915Z,18.22
2022-12-31T13:07:41.675Z,18.18
2022-12-31T13:10:42.350Z,18.12
2022-12-31T13:13:39.145Z,18.12
2022-12-31T13:16:14.703Z,18.18
2022-12-31T13:18:54.760Z,18.23
2022-12-31T13:21:37.666Z,18.22
2022-12-31T13:24:30.676Z,18.22
2022-12-31T13:27:21.055Z,18.21
2022-12-31T13:29:48.909Z,18.14
2022-12-31T13:32:20.741Z,18.11
2022-12-31T13:34:51.772Z,18.09
2022-12-31T13:37:42.137Z,18.04
2022-12-31T13:40:23.872Z,17.95
2022-12-31T13:42:57.146Z,17.86
2022-12-31T13:45:45.409Z,17.79
2022-12-31T13:48:21.401Z,17.75
2022-12-31T13:51:18.311Z,17.78
2022-12-31T13:54:01.743Z,17.77
2022-12-31T13:56:36.226Z,17.71
2022-12-31T13:59:16.602Z,17.65
2022-12-31T14:01:59.185Z,17.54
2022-12-31T14:04:33.962Z,17.48
2022-12-31T14:07:14.000Z,17.42
2022-12-31T14:09:40.455Z,17.31
2022-12-31T14:12:22.955Z,17.21
2022-12-31T14:15:13.857Z,17.13
2022-12-31T14:17:47.341Z,17.07
2022-12-31T14:20:47.964Z,16.99
2022-12-31T14:23:20.339Z,16.89
2022-12-31T14:26:00.140Z,16.77
2022-12-31T14:28:35.718Z,16.68
2022-12-31T14:31:26.440Z,16.57
2022-12-31T14:34:18.950Z,16.43
2022-12-31T14:37:22.908Z,16.34
2022-12-31T14:40:32.788Z,16.25
2022-12-31T14:43:11.154Z,16.16
2022-12-31T14:45:47.854Z,16.14
2022-12-31T14:48:24.999Z,16.13
2022-12-31T14:50:51.904Z,16.11
2022-12-31T14:53:29.233Z,16.06
2022-12-31T14:56:27.037Z,15.98
2022-12-31T14:59:02.814Z,15.91
2022-12-31T15:01:30.278Z,15.87
2022-12-31T15:03:58.358Z,15.84
2022-12-31T15:07:24.339Z,15.79
2022-12-31T15:09:57.996Z,15.75
2022-12-31T15:13:06.659Z,15.73
2022-12-31T15:15:57.476Z,15.70
2022-12-31T15:18:36.858Z,15.68
2022-12-31T15:21:24.939Z,15.64
2022-12-31T15:23:52.206Z,15.62
2022-12-31T15:26:31.542Z,15.59
2022-12-31T15:29:01.483Z,15.54
2022-12-31T15:31:28.707Z,15.49
2022-12-31T15:34:07.101Z,15.47
2022-12-31T15:36:39.439Z,15.37
2022-12-31T15:39:12.351Z,15.30
2022-12-31T15:42:18.563Z,15.24
2022-12-31T15:44:45.103Z,15.14
2022-12-31T15:47:20.344Z,15.09
2022-12-31T15:49:47.705Z,15.03
2022-12-31T15:52:43.780Z,14.99
2022-12-31T15:55:25.025Z,14.97
2022-12-31T15:57:53.339Z,14.97
2022-12-31T16:00:22.585Z,14.97
2022-12-31T16:02:53.272Z,14.93
2022-12-31T16:05:27.605Z,14.92
2022-12-31T16:07:56.307Z,14.86
2022-12-31T16:10:30.107Z,14.81
2022-12-31T16:12:58.545Z,14.82
2022-12-31T16:15:28.410Z,14.84
2022-12-31T16:18:06.529Z,14.79
2022-12-31T16:20:34.625Z,14.74
2022-12-31T16:23:03.443Z,14.72
2022-12-31T16:25:32.893Z,14.68
2022-12-31T16:28:02.458Z,14.65
2022-12-31T16:30:35.683Z,14.58
2022-12-31T16:33:06.436Z,14.53
2022-12-31T16:35:36.411Z,14.45
2022-12-31T16:38:11.807Z,14.35
2022-12-31T16:40:39.517Z,14.24
2022-12-31T16:43:27.078Z,14.12
2022-12-31T16:45:57.494Z,14.03
2022-12-31T16:48:26.198Z,13.93
2022-12-31T16:50:56.057Z,13.93
2022-12-31T16:53:26.872Z,13.87
2022-12-31T16:56:12.304Z,13.88
2022-12-31T16:58:47.807Z,13.92
2022-12-31T17:01:19.610Z,13.94
2022-12-31T17:03:54.468Z,13.93
2022-12-31T17:06:25.807Z,13.92
2022-12-31T17:08:56.006Z,13.94
2022-12-31T17:11:30.604Z,13.95
2022-12-31T17:14:09.562Z,13.99
2022-12-31T17:16:42.928Z,13.95
2022-12-31T17:19:40.444Z,13.93
2022-12-31T17:22:35.786Z,13.93
2022-12-31T17:25:23.363Z,13.96
2022-12-31T17:28:04.617Z,14.05
2022-12-31T17:30:35.418Z,14.18
2022-12-31T17:33:22.343Z,14.22
2022-12-31T17:35:55.314Z,14.25
2022-12-31T17:38:22.232Z,14.25
2022-12-31T17:40:52.542Z,14.27
2022-12-31T17:43:22.723Z,14.26
2022-12-31T17:45:54.527Z,14.22
2022-12-31T17:48:24.917Z,14.18
2022-12-31T17:50:54.462Z,14.16
2022-12-31T17:53:21.732Z,14.17
2022-12-31T17:55:52.024Z,14.15
2022-12-31T17:58:29.275Z,14.14
2022-12-31T18:00:57.637Z,14.11
2022-12-31T18:03:24.852Z,14.11
2022-12-31T18:05:55.288Z,14.10
2022-12-31T18:08:22.193Z,14.09
2022-12-31T18:10:49.435Z,14.09
2022-12-31T18:13:24.630Z,14.10
2022-12-31T18:15:52.493Z,14.06
2022-12-31T18:18:25.339Z,14.04
2022-12-31T18:21:04.886Z,13.99
2022-12-31T18:23:38.320Z,13.95
2022-12-31T18:26:19.696Z,13.99
2022-12-31T18:28:50.040Z,14.02
2022-12-31T18:31:21.501Z,14.07
2022-12-31T18:33:51.020Z,14.10
2022-12-31T18:36:21.332Z,14.13
2022-12-31T18:38:48.552Z,14.11
2022-12-31T18:41:20.860Z,14.11
2022-12-31T18:43:48.387Z,14.13
2022-12-31T18:46:20.555Z,14.15
2022-12-31T18:48:47.693Z,14.19
2022-12-31T18:51:20.150Z,14.25
2022-12-31T18:53:47.760Z,14.29
2022-12-31T18:56:19.908Z,14.34
2022-12-31T18:58:47.509Z,14.32
2022-12-31T19:01:35.237Z,14.31
2022-12-31T19:04:27.669Z,14.30
2022-12-31T19:06:55.247Z,14.28
2022-12-31T19:12:13.173Z,14.20
2022-12-31T19:14:40.126Z,14.19
2022-12-31T19:19:32.742Z,14.21
2022-12-31T19:21:59.393Z,14.26
2022-12-31T19:24:29.029Z,14.24
2022-12-31T19:26:56.066Z,14.26
2022-12-31T19:29:28.090Z,14.22
2022-12-31T19:31:55.178Z,14.18
2022-12-31T19:34:22.202Z,14.13
2022-12-31T19:36:52.143Z,14.12
2022-12-31T19:39:21.100Z,14.09
2022-12-31T19:41:54.619Z,14.06
2022-12-31T19:44:25.294Z,14.04
2022-12-31T19:46:52.139Z,14.02
2022-12-31T19:49:18.890Z,13.99
2022-12-31T19:51:46.109Z,13.94
2022-12-31T19:54:13.686Z,13.94
2022-12-31T19:56:40.824Z,13.91
2022-12-31T19:59:09.793Z,13.92
2022-12-31T20:01:37.582Z,13.92
2022-12-31T20:04:05.055Z,13.91
2022-12-31T20:06:32.136Z,13.90
2022-12-31T20:08:59.304Z,13.90
2022-12-31T20:11:26.601Z,13.91
2022-12-31T20:13:54.226Z,13.90
2022-12-31T20:16:24.605Z,13.88
2022-12-31T20:18:51.442Z,13.86
2022-12-31T20:21:21.186Z,13.88
2022-12-31T20:23:50.159Z,13.88
2022-12-31T20:26:17.660Z,13.88
2022-12-31T20:28:44.832Z,13.84
2022-12-31T20:31:17.302Z,13.79
2022-12-31T20:33:44.520Z,13.77
2022-12-31T20:36:13.377Z,13.78
2022-12-31T20:38:40.572Z,13.77
2022-12-31T20:41:12.872Z,13.77
2022-12-31T20:43:40.070Z,13.74
2022-12-31T20:46:14.481Z,13.70
2022-12-31T20:48:41.967Z,13.71
2022-12-31T20:51:08.507Z,13.68
2022-12-31T20:53:34.939Z,13.63
2022-12-31T20:56:06.000Z,13.56
2022-12-31T20:58:32.622Z,13.50
2022-12-31T21:00:59.167Z,13.44
2022-12-31T21:04:03.026Z,13.41
2022-12-31T21:06:13.141Z,13.37
2022-12-31T21:08:39.913Z,13.34
2022-12-31T21:11:27.059Z,13.32
2022-12-31T21:13:55.814Z,13.30
2022-12-31T21:16:22.917Z,13.26
2022-12-31T21:18:49.390Z,13.26
2022-12-31T21:21:16.089Z,13.23
2022-12-31T21:23:42.542Z,13.18
2022-12-31T21:26:09.001Z,13.13
2022-12-31T21:28:35.704Z,13.09
2022-12-31T21:31:07.171Z,13.04
2022-12-31T21:33:34.780Z,13.00
2022-12-31T21:36:04.554Z,12.98
2022-12-31T21:38:31.637Z,12.96
2022-12-31T21:41:05.579Z,12.92
2022-12-31T21:43:32.238Z,12.96
2022-12-31T21:46:02.959Z,12.96
2022-12-31T21:48:31.212Z,12.96
2022-12-31T21:51:23.576Z,12.96
2022-12-31T21:53:52.423Z,12.99
2022-12-31T21:56:21.543Z,13.02
2022-12-31T21:59:14.894Z,13.06
2022-12-31T22:02:00.798Z,13.07
2022-12-31T22:05:00.813Z,13.06
2022-12-31T22:07:18.686Z,13.05
2022-12-31T22:09:45.524Z,13.03
2022-12-31T22:12:15.316Z,12.99
2022-12-31T22:15:14.318Z,12.99
2022-12-31T22:17:29.532Z,13.01
2022-12-31T22:22:43.542Z,13.01
2022-12-31T22:25:10.286Z,12.98
2022-12-31T22:27:37.030Z,12.94
2022-12-31T22:30:04.131Z,12.92
2022-12-31T22:32:30.917Z,12.91
2022-12-31T22:34:57.849Z,12.92
2022-12-31T22:37:55.565Z,12.84
2022-12-31T22:40:11.879Z,12.77
2022-12-31T22:42:38.652Z,12.74
2022-12-31T22:45:06.899Z,12.73
2022-12-31T22:47:33.975Z,12.74
2022-12-31T22:50:01.145Z,12.75
2022-12-31T22:52:28.406Z,12.78
2022-12-31T22:54:55.137Z,12.85
2022-12-31T22:57:21.891Z,12.91
2022-12-31T22:59:48.770Z,12.92
2022-12-31T23:02:16.564Z,12.92
2022-12-31T23:04:43.639Z,12.88
2022-12-31T23:07:10.751Z,12.79
2022-12-31T23:09:56.316Z,12.74
2022-12-31T23:12:22.971Z,12.66
2022-12-31T23:15:08.189Z,12.61
2022-12-31T23:17:53.579Z,12.57
2022-12-31T23:20:42.303Z,12.60
2022-12-31T23:23:15.053Z,12.64
2022-12-31T23:25:44.819Z,12.70
2022-12-31T23:28:20.276Z,12.71
2022-12-31T23:30:47.891Z,12.75
2022-12-31T23:33:26.540Z,12.79
2022-12-31T23:36:05.140Z,12.79
2022-12-31T23:38:32.093Z,12.79
2022-12-31T23:41:01.631Z,12.80
2022-12-31T23:43:29.127Z,12.81
2022-12-31T23:45:55.927Z,12.80
2022-12-31T23:48:22.413Z,12.77
2022-12-31T23:50:53.472Z,12.71
2022-12-31T23:53:20.716Z,12.70
2022-12-31T23:55:47.119Z,12.71
2022-12-31T23:58:13.515Z,12.75
